sensor_id;sensor_type;location;lat;lon;timestamp;noise_LAeq;noise_LA_min;noise_LA_max;noise_LA01;noise_LA95
74470;Laerm;62918;55.706;37.816;2023-08-21T00:00:00;52.20;47.21;57.12;;
74470;Laerm;62918;55.706;37.816;2023-08-21T00:00:30;52.91;48.26;62.23;;
74470;Laerm;62918;55.706;37.816;2023-08-21T00:01:01;61.08;47.52;68.68;;
74470;Laerm;62918;55.706;37.816;2023-08-21T00:01:32;62.97;48.89;70.25;;
74470;Laerm;62918;55.706;37.816;2023-08-21T00:02:02;54.99;48.02;61.13;;
74470;Laerm;62918;55.706;37.816;2023-08-21T00:02:33;51.16;47.53;57.57;;
74470;Laerm;62918;55.706;37.816;2023-08-21T00:03:04;53.95;47.50;60.34;;
74470;Laerm;62918;55.706;37.816;2023-08-21T00:03:34;63.34;55.78;70.08;;
74470;Laerm;62918;55.706;37.816;2023-08-21T00:04:05;53.49;48.65;60.28;;
74470;Laerm;62918;55.706;37.816;2023-08-21T00:04:35;53.86;47.31;62.03;;
74470;Laerm;62918;55.706;37.816;2023-08-21T00:05:06;56.40;49.31;61.35;;
74470;Laerm;62918;55.706;37.816;2023-08-21T00:05:37;53.45;48.42;61.36;;
74470;Laerm;62918;55.706;37.816;2023-08-21T00:06:07;55.48;50.77;61.91;;
74470;Laerm;62918;55.706;37.816;2023-08-21T00:06:38;55.62;48.56;61.55;;
74470;Laerm;62918;55.706;37.816;2023-08-21T00:07:08;58.44;50.70;66.41;;
74470;Laerm;62918;55.706;37.816;2023-08-21T00:07:39;54.26;49.42;66.02;;
74470;Laerm;62918;55.706;37.816;2023-08-21T00:08:10;60.45;52.10;73.98;;
74470;Laerm;62918;55.706;37.816;2023-08-21T00:08:40;52.94;48.32;65.53;;
74470;Laerm;62918;55.706;37.816;2023-08-21T00:09:11;50.61;47.57;54.87;;
74470;Laerm;62918;55.706;37.816;2023-08-21T00:09:41;51.20;46.72;59.28;;
74470;Laerm;62918;55.706;37.816;2023-08-21T00:10:12;54.37;49.95;65.01;;
74470;Laerm;62918;55.706;37.816;2023-08-21T00:10:44;53.69;47.97;59.55;;
74470;Laerm;62918;55.706;37.816;2023-08-21T00:11:15;52.43;49.05;55.65;;
74470;Laerm;62918;55.706;37.816;2023-08-21T00:11:45;57.41;49.07;63.55;;
74470;Laerm;62918;55.706;37.816;2023-08-21T00:12:16;53.91;47.72;63.83;;
74470;Laerm;62918;55.706;37.816;2023-08-21T00:12:46;55.08;48.20;60.08;;
74470;Laerm;62918;55.706;37.816;2023-08-21T00:13:17;51.53;47.54;58.51;;
74470;Laerm;62918;55.706;37.816;2023-08-21T00:13:49;50.13;47.16;53.39;;
74470;Laerm;62918;55.706;37.816;2023-08-21T00:14:19;51.22;47.78;59.44;;
74470;Laerm;62918;55.706;37.816;2023-08-21T00:14:50;55.25;49.44;62.88;;
74470;Laerm;62918;55.706;37.816;2023-08-21T00:15:20;51.75;48.89;58.03;;
74470;Laerm;62918;55.706;37.816;2023-08-21T00:15:51;52.18;48.32;58.56;;
74470;Laerm;62918;55.706;37.816;2023-08-21T00:16:22;53.11;48.79;63.22;;
74470;Laerm;62918;55.706;37.816;2023-08-21T00:16:53;54.20;48.96;58.30;;
74470;Laerm;62918;55.706;37.816;2023-08-21T00:17:23;58.02;51.78;63.99;;
74470;Laerm;62918;55.706;37.816;2023-08-21T00:17:54;56.58;47.98;70.76;;
74470;Laerm;62918;55.706;37.816;2023-08-21T00:18:24;49.90;47.30;52.63;;
74470;Laerm;62918;55.706;37.816;2023-08-21T00:18:55;53.36;48.10;60.64;;
74470;Laerm;62918;55.706;37.816;2023-08-21T00:19:26;51.70;47.35;70.29;;
74470;Laerm;62918;55.706;37.816;2023-08-21T00:19:56;51.46;48.43;61.41;;
74470;Laerm;62918;55.706;37.816;2023-08-21T00:20:27;50.64;47.64;61.75;;
74470;Laerm;62918;55.706;37.816;2023-08-21T00:20:57;55.32;47.29;60.80;;
74470;Laerm;62918;55.706;37.816;2023-08-21T00:21:28;56.08;49.31;63.74;;
74470;Laerm;62918;55.706;37.816;2023-08-21T00:22:00;52.63;48.36;65.65;;
74470;Laerm;62918;55.706;37.816;2023-08-21T00:22:30;56.71;47.47;65.74;;
74470;Laerm;62918;55.706;37.816;2023-08-21T00:23:01;56.81;48.66;64.47;;
74470;Laerm;62918;55.706;37.816;2023-08-21T00:23:31;54.53;48.25;59.95;;
74470;Laerm;62918;55.706;37.816;2023-08-21T00:24:02;62.26;48.62;69.83;;
74470;Laerm;62918;55.706;37.816;2023-08-21T00:24:32;60.73;50.11;70.12;;
74470;Laerm;62918;55.706;37.816;2023-08-21T00:25:03;58.20;51.24;65.48;;
74470;Laerm;62918;55.706;37.816;2023-08-21T00:25:35;61.50;48.10;74.47;;
74470;Laerm;62918;55.706;37.816;2023-08-21T00:26:05;52.04;47.78;59.35;;
74470;Laerm;62918;55.706;37.816;2023-08-21T00:26:36;50.23;46.92;53.69;;
74470;Laerm;62918;55.706;37.816;2023-08-21T00:27:06;57.25;50.96;64.03;;
74470;Laerm;62918;55.706;37.816;2023-08-21T00:27:37;60.35;48.19;70.30;;
74470;Laerm;62918;55.706;37.816;2023-08-21T00:28:07;57.52;48.23;65.78;;
74470;Laerm;62918;55.706;37.816;2023-08-21T00:28:38;55.91;48.64;62.29;;
74470;Laerm;62918;55.706;37.816;2023-08-21T00:29:08;54.44;50.06;59.63;;
74470;Laerm;62918;55.706;37.816;2023-08-21T00:29:39;52.13;47.41;59.01;;
74470;Laerm;62918;55.706;37.816;2023-08-21T00:30:10;51.56;47.44;57.91;;
74470;Laerm;62918;55.706;37.816;2023-08-21T00:30:41;53.60;48.67;61.58;;
74470;Laerm;62918;55.706;37.816;2023-08-21T00:31:12;51.63;47.81;54.99;;
74470;Laerm;62918;55.706;37.816;2023-08-21T00:31:43;50.04;46.65;56.55;;
74470;Laerm;62918;55.706;37.816;2023-08-21T00:32:13;52.62;45.61;64.19;;
74470;Laerm;62918;55.706;37.816;2023-08-21T00:32:44;56.58;50.12;62.92;;
74470;Laerm;62918;55.706;37.816;2023-08-21T00:33:14;52.04;49.37;56.68;;
74470;Laerm;62918;55.706;37.816;2023-08-21T00:33:45;52.58;48.02;56.91;;
74470;Laerm;62918;55.706;37.816;2023-08-21T00:34:15;51.89;48.64;56.40;;
74470;Laerm;62918;55.706;37.816;2023-08-21T00:34:46;55.86;47.51;65.64;;
74470;Laerm;62918;55.706;37.816;2023-08-21T00:35:16;52.41;46.65;57.84;;
74470;Laerm;62918;55.706;37.816;2023-08-21T00:35:47;49.30;46.26;59.13;;
74470;Laerm;62918;55.706;37.816;2023-08-21T00:36:17;50.44;46.90;60.77;;
74470;Laerm;62918;55.706;37.816;2023-08-21T00:36:49;64.93;47.93;79.44;;
74470;Laerm;62918;55.706;37.816;2023-08-21T00:37:20;61.69;50.01;74.42;;
74470;Laerm;62918;55.706;37.816;2023-08-21T00:37:50;55.10;50.27;60.91;;
74470;Laerm;62918;55.706;37.816;2023-08-21T00:38:21;50.14;47.53;55.93;;
74470;Laerm;62918;55.706;37.816;2023-08-21T00:38:51;51.14;47.14;58.95;;
74470;Laerm;62918;55.706;37.816;2023-08-21T00:39:22;51.94;48.58;56.24;;
74470;Laerm;62918;55.706;37.816;2023-08-21T00:39:52;54.65;48.89;61.96;;
74470;Laerm;62918;55.706;37.816;2023-08-21T00:40:23;59.30;49.34;66.82;;
74470;Laerm;62918;55.706;37.816;2023-08-21T00:40:53;53.31;49.11;60.80;;
74470;Laerm;62918;55.706;37.816;2023-08-21T00:41:24;52.32;48.47;57.46;;
74470;Laerm;62918;55.706;37.816;2023-08-21T00:41:54;55.81;51.05;59.90;;
74470;Laerm;62918;55.706;37.816;2023-08-21T00:42:25;51.20;47.46;56.80;;
74470;Laerm;62918;55.706;37.816;2023-08-21T00:42:56;53.49;48.41;57.86;;
74470;Laerm;62918;55.706;37.816;2023-08-21T00:43:26;51.23;47.97;54.50;;
74470;Laerm;62918;55.706;37.816;2023-08-21T00:43:57;50.48;47.90;54.07;;
74470;Laerm;62918;55.706;37.816;2023-08-21T00:44:27;51.02;47.98;56.58;;
74470;Laerm;62918;55.706;37.816;2023-08-21T00:44:58;54.03;49.51;58.72;;
74470;Laerm;62918;55.706;37.816;2023-08-21T00:45:28;53.60;49.99;58.89;;
74470;Laerm;62918;55.706;37.816;2023-08-21T00:45:59;53.06;48.42;59.78;;
74470;Laerm;62918;55.706;37.816;2023-08-21T00:46:31;57.67;49.42;67.07;;
74470;Laerm;62918;55.706;37.816;2023-08-21T00:47:02;59.42;50.92;68.19;;
74470;Laerm;62918;55.706;37.816;2023-08-21T00:47:32;53.21;48.32;58.85;;
74470;Laerm;62918;55.706;37.816;2023-08-21T00:48:03;52.82;48.79;58.45;;
74470;Laerm;62918;55.706;37.816;2023-08-21T00:48:34;50.16;47.21;54.26;;
74470;Laerm;62918;55.706;37.816;2023-08-21T00:49:05;49.94;46.75;55.21;;
74470;Laerm;62918;55.706;37.816;2023-08-21T00:49:36;49.70;46.22;55.91;;
74470;Laerm;62918;55.706;37.816;2023-08-21T00:50:07;49.62;46.72;59.73;;
74470;Laerm;62918;55.706;37.816;2023-08-21T00:50:39;50.78;47.61;59.04;;
74470;Laerm;62918;55.706;37.816;2023-08-21T00:51:11;50.40;46.86;61.07;;
74470;Laerm;62918;55.706;37.816;2023-08-21T00:51:44;51.09;47.33;58.79;;
74470;Laerm;62918;55.706;37.816;2023-08-21T00:52:15;49.34;46.04;60.26;;
74470;Laerm;62918;55.706;37.816;2023-08-21T00:52:46;50.10;47.18;56.59;;
74470;Laerm;62918;55.706;37.816;2023-08-21T00:53:18;52.85;48.32;58.37;;
74470;Laerm;62918;55.706;37.816;2023-08-21T00:53:48;52.47;49.36;57.04;;
74470;Laerm;62918;55.706;37.816;2023-08-21T00:54:19;55.18;48.95;60.38;;
74470;Laerm;62918;55.706;37.816;2023-08-21T00:54:50;55.93;51.92;60.18;;
74470;Laerm;62918;55.706;37.816;2023-08-21T00:55:21;59.10;49.07;68.07;;
74470;Laerm;62918;55.706;37.816;2023-08-21T00:55:51;50.46;47.89;52.92;;
74470;Laerm;62918;55.706;37.816;2023-08-21T00:56:22;49.95;46.28;55.48;;
74470;Laerm;62918;55.706;37.816;2023-08-21T00:56:52;51.74;49.19;55.58;;
74470;Laerm;62918;55.706;37.816;2023-08-21T00:57:23;52.49;48.93;58.17;;
74470;Laerm;62918;55.706;37.816;2023-08-21T00:57:54;52.87;48.74;62.43;;
74470;Laerm;62918;55.706;37.816;2023-08-21T00:58:26;53.93;50.06;59.88;;
74470;Laerm;62918;55.706;37.816;2023-08-21T00:58:56;53.10;49.31;57.18;;
74470;Laerm;62918;55.706;37.816;2023-08-21T00:59:27;52.01;48.57;57.03;;
74470;Laerm;62918;55.706;37.816;2023-08-21T01:00:00;57.11;50.76;63.57;;
74470;Laerm;62918;55.706;37.816;2023-08-21T01:00:32;56.05;49.65;61.89;;
74470;Laerm;62918;55.706;37.816;2023-08-21T01:01:04;52.62;48.45;57.21;;
74470;Laerm;62918;55.706;37.816;2023-08-21T01:01:35;57.50;49.19;64.78;;
74470;Laerm;62918;55.706;37.816;2023-08-21T01:02:06;52.62;48.50;62.55;;
74470;Laerm;62918;55.706;37.816;2023-08-21T01:02:36;55.74;48.75;62.36;;
74470;Laerm;62918;55.706;37.816;2023-08-21T01:03:07;54.36;50.07;60.34;;
74470;Laerm;62918;55.706;37.816;2023-08-21T01:03:39;56.48;50.74;63.22;;
74470;Laerm;62918;55.706;37.816;2023-08-21T01:04:09;53.59;48.10;59.01;;
74470;Laerm;62918;55.706;37.816;2023-08-21T01:04:41;50.37;47.63;54.52;;
74470;Laerm;62918;55.706;37.816;2023-08-21T01:05:11;54.69;48.82;58.64;;
74470;Laerm;62918;55.706;37.816;2023-08-21T01:05:42;54.76;51.06;63.28;;
74470;Laerm;62918;55.706;37.816;2023-08-21T01:06:12;60.19;51.38;68.33;;
74470;Laerm;62918;55.706;37.816;2023-08-21T01:06:43;61.70;51.49;70.13;;
74470;Laerm;62918;55.706;37.816;2023-08-21T01:07:14;57.19;51.48;63.35;;
74470;Laerm;62918;55.706;37.816;2023-08-21T01:08:01;54.94;50.31;60.61;;
74470;Laerm;62918;55.706;37.816;2023-08-21T01:10:00;61.28;49.68;73.26;;
74470;Laerm;62918;55.706;37.816;2023-08-21T01:11:50;56.55;48.47;65.72;;
74470;Laerm;62918;55.706;37.816;2023-08-21T01:13:34;58.79;50.90;67.90;;
74470;Laerm;62918;55.706;37.816;2023-08-21T01:14:33;54.58;48.40;60.37;;
74470;Laerm;62918;55.706;37.816;2023-08-21T01:15:07;52.17;48.47;57.55;;
74470;Laerm;62918;55.706;37.816;2023-08-21T01:15:40;56.38;50.08;64.25;;
74470;Laerm;62918;55.706;37.816;2023-08-21T01:16:13;55.73;49.30;61.86;;
74470;Laerm;62918;55.706;37.816;2023-08-21T01:16:45;52.02;48.36;56.93;;
74470;Laerm;62918;55.706;37.816;2023-08-21T01:17:17;54.16;47.22;60.62;;
74470;Laerm;62918;55.706;37.816;2023-08-21T01:17:50;54.85;50.56;59.34;;
74470;Laerm;62918;55.706;37.816;2023-08-21T01:18:22;51.55;48.46;57.43;;
74470;Laerm;62918;55.706;37.816;2023-08-21T01:18:53;58.66;49.03;66.14;;
74470;Laerm;62918;55.706;37.816;2023-08-21T01:19:31;52.40;48.88;64.08;;
74470;Laerm;62918;55.706;37.816;2023-08-21T01:20:03;52.62;49.76;57.84;;
74470;Laerm;62918;55.706;37.816;2023-08-21T01:20:35;56.03;51.21;62.34;;
74470;Laerm;62918;55.706;37.816;2023-08-21T01:21:05;54.69;51.29;58.07;;
74470;Laerm;62918;55.706;37.816;2023-08-21T01:21:36;59.20;50.95;68.75;;
74470;Laerm;62918;55.706;37.816;2023-08-21T01:22:07;51.75;48.70;65.00;;
74470;Laerm;62918;55.706;37.816;2023-08-21T01:22:40;51.63;49.12;55.04;;
74470;Laerm;62918;55.706;37.816;2023-08-21T01:23:34;56.47;49.76;62.43;;
74470;Laerm;62918;55.706;37.816;2023-08-21T01:24:05;52.36;48.93;57.32;;
74470;Laerm;62918;55.706;37.816;2023-08-21T01:24:35;54.59;48.96;61.86;;
74470;Laerm;62918;55.706;37.816;2023-08-21T01:25:07;54.20;49.69;67.78;;
74470;Laerm;62918;55.706;37.816;2023-08-21T01:25:40;54.30;51.09;59.19;;
74470;Laerm;62918;55.706;37.816;2023-08-21T01:26:11;52.59;49.29;59.28;;
74470;Laerm;62918;55.706;37.816;2023-08-21T01:26:41;51.90;48.57;55.55;;
74470;Laerm;62918;55.706;37.816;2023-08-21T01:27:13;52.11;49.39;55.96;;
74470;Laerm;62918;55.706;37.816;2023-08-21T01:27:48;52.29;48.73;59.13;;
74470;Laerm;62918;55.706;37.816;2023-08-21T01:28:20;57.51;50.44;65.98;;
74470;Laerm;62918;55.706;37.816;2023-08-21T01:28:51;51.60;48.46;54.95;;
74470;Laerm;62918;55.706;37.816;2023-08-21T01:29:21;51.83;47.83;57.13;;
74470;Laerm;62918;55.706;37.816;2023-08-21T01:29:53;52.99;49.69;56.37;;
74470;Laerm;62918;55.706;37.816;2023-08-21T01:30:25;52.17;49.24;55.67;;
74470;Laerm;62918;55.706;37.816;2023-08-21T01:31:19;54.55;48.69;60.85;;
74470;Laerm;62918;55.706;37.816;2023-08-21T01:32:45;52.29;48.03;57.55;;
74470;Laerm;62918;55.706;37.816;2023-08-21T01:33:19;55.75;49.82;62.70;;
74470;Laerm;62918;55.706;37.816;2023-08-21T01:33:53;57.70;49.32;64.79;;
74470;Laerm;62918;55.706;37.816;2023-08-21T01:34:28;51.64;48.91;55.04;;
74470;Laerm;62918;55.706;37.816;2023-08-21T01:34:59;50.95;48.24;53.59;;
74470;Laerm;62918;55.706;37.816;2023-08-21T01:35:30;51.72;48.41;57.33;;
74470;Laerm;62918;55.706;37.816;2023-08-21T01:36:03;54.71;50.66;59.19;;
74470;Laerm;62918;55.706;37.816;2023-08-21T01:36:37;57.64;49.44;67.99;;
74470;Laerm;62918;55.706;37.816;2023-08-21T01:37:08;58.08;48.94;68.79;;
74470;Laerm;62918;55.706;37.816;2023-08-21T01:37:39;61.60;50.56;69.37;;
74470;Laerm;62918;55.706;37.816;2023-08-21T01:38:10;53.71;49.79;67.55;;
74470;Laerm;62918;55.706;37.816;2023-08-21T01:38:41;58.16;51.09;63.66;;
74470;Laerm;62918;55.706;37.816;2023-08-21T01:39:12;56.71;51.26;65.85;;
74470;Laerm;62918;55.706;37.816;2023-08-21T01:39:43;54.41;51.94;59.73;;
74470;Laerm;62918;55.706;37.816;2023-08-21T01:40:22;58.25;51.63;63.68;;
74470;Laerm;62918;55.706;37.816;2023-08-21T01:40:53;56.84;49.03;81.16;;
74470;Laerm;62918;55.706;37.816;2023-08-21T01:41:24;63.00;50.74;79.80;;
74470;Laerm;62918;55.706;37.816;2023-08-21T01:41:56;62.01;51.06;83.26;;
74470;Laerm;62918;55.706;37.816;2023-08-21T01:42:26;61.48;51.84;84.63;;
74470;Laerm;62918;55.706;37.816;2023-08-21T01:42:57;54.78;49.97;70.10;;
74470;Laerm;62918;55.706;37.816;2023-08-21T01:43:28;54.00;50.45;59.81;;
74470;Laerm;62918;55.706;37.816;2023-08-21T01:43:58;55.21;49.80;72.92;;
74470;Laerm;62918;55.706;37.816;2023-08-21T01:44:29;54.83;49.92;70.53;;
74470;Laerm;62918;55.706;37.816;2023-08-21T01:44:59;57.07;50.13;67.57;;
74470;Laerm;62918;55.706;37.816;2023-08-21T01:45:30;59.41;51.78;69.22;;
74470;Laerm;62918;55.706;37.816;2023-08-21T01:46:01;58.46;50.87;67.71;;
74470;Laerm;62918;55.706;37.816;2023-08-21T01:46:32;61.06;52.81;67.80;;
74470;Laerm;62918;55.706;37.816;2023-08-21T01:47:03;54.71;50.53;61.36;;
74470;Laerm;62918;55.706;37.816;2023-08-21T01:47:34;53.82;49.05;65.40;;
74470;Laerm;62918;55.706;37.816;2023-08-21T01:48:04;54.47;51.06;62.96;;
74470;Laerm;62918;55.706;37.816;2023-08-21T01:48:35;55.14;50.91;67.92;;
74470;Laerm;62918;55.706;37.816;2023-08-21T01:49:06;56.61;49.90;63.76;;
74470;Laerm;62918;55.706;37.816;2023-08-21T01:49:36;52.30;49.86;56.08;;
74470;Laerm;62918;55.706;37.816;2023-08-21T01:50:07;60.63;49.87;71.02;;
74470;Laerm;62918;55.706;37.816;2023-08-21T01:50:38;54.01;49.36;59.30;;
74470;Laerm;62918;55.706;37.816;2023-08-21T01:51:08;52.90;49.39;56.38;;
74470;Laerm;62918;55.706;37.816;2023-08-21T01:51:39;52.91;49.98;56.30;;
74470;Laerm;62918;55.706;37.816;2023-08-21T01:52:09;58.26;50.91;64.88;;
74470;Laerm;62918;55.706;37.816;2023-08-21T01:52:40;58.18;51.83;63.23;;
74470;Laerm;62918;55.706;37.816;2023-08-21T01:53:10;56.32;50.79;60.39;;
74470;Laerm;62918;55.706;37.816;2023-08-21T01:53:41;56.66;50.34;67.35;;
74470;Laerm;62918;55.706;37.816;2023-08-21T01:54:11;59.28;50.16;67.85;;
74470;Laerm;62918;55.706;37.816;2023-08-21T01:54:42;53.70;50.03;58.36;;
74470;Laerm;62918;55.706;37.816;2023-08-21T01:55:12;54.11;49.31;67.26;;
74470;Laerm;62918;55.706;37.816;2023-08-21T01:55:43;59.80;52.18;65.95;;
74470;Laerm;62918;55.706;37.816;2023-08-21T01:56:13;58.38;52.32;73.44;;
74470;Laerm;62918;55.706;37.816;2023-08-21T01:56:44;61.82;54.90;66.80;;
74470;Laerm;62918;55.706;37.816;2023-08-21T01:57:14;57.75;53.76;66.10;;
74470;Laerm;62918;55.706;37.816;2023-08-21T01:57:45;56.91;52.38;63.58;;
74470;Laerm;62918;55.706;37.816;2023-08-21T01:58:15;54.89;51.50;60.14;;
74470;Laerm;62918;55.706;37.816;2023-08-21T01:58:46;53.66;50.31;58.38;;
74470;Laerm;62918;55.706;37.816;2023-08-21T01:59:17;64.99;52.45;73.14;;
74470;Laerm;62918;55.706;37.816;2023-08-21T01:59:48;60.42;53.51;67.03;;
74470;Laerm;62918;55.706;37.816;2023-08-21T02:00:19;61.94;53.57;67.79;;
74470;Laerm;62918;55.706;37.816;2023-08-21T02:00:49;59.93;52.78;66.76;;
74470;Laerm;62918;55.706;37.816;2023-08-21T02:01:20;61.24;53.12;68.08;;
74470;Laerm;62918;55.706;37.816;2023-08-21T02:01:50;62.12;53.96;69.46;;
74470;Laerm;62918;55.706;37.816;2023-08-21T02:02:21;59.46;50.16;65.13;;
74470;Laerm;62918;55.706;37.816;2023-08-21T02:02:51;53.81;49.01;59.15;;
74470;Laerm;62918;55.706;37.816;2023-08-21T02:03:25;50.99;48.21;55.56;;
74470;Laerm;62918;55.706;37.816;2023-08-21T02:03:55;55.60;49.29;62.56;;
74470;Laerm;62918;55.706;37.816;2023-08-21T02:04:26;57.41;50.62;63.35;;
74470;Laerm;62918;55.706;37.816;2023-08-21T02:04:56;52.29;49.91;55.67;;
74470;Laerm;62918;55.706;37.816;2023-08-21T02:05:27;54.58;49.68;60.74;;
74470;Laerm;62918;55.706;37.816;2023-08-21T02:05:58;56.35;50.54;66.20;;
74470;Laerm;62918;55.706;37.816;2023-08-21T02:06:28;55.35;49.52;64.70;;
74470;Laerm;62918;55.706;37.816;2023-08-21T02:06:59;59.57;53.11;64.69;;
74470;Laerm;62918;55.706;37.816;2023-08-21T02:07:30;55.31;50.11;60.01;;
74470;Laerm;62918;55.706;37.816;2023-08-21T02:08:01;60.66;51.32;66.20;;
74470;Laerm;62918;55.706;37.816;2023-08-21T02:08:32;51.97;49.27;55.81;;
74470;Laerm;62918;55.706;37.816;2023-08-21T02:09:03;55.51;51.23;58.42;;
74470;Laerm;62918;55.706;37.816;2023-08-21T02:09:33;61.48;53.66;66.71;;
74470;Laerm;62918;55.706;37.816;2023-08-21T02:10:04;59.62;54.03;65.28;;
74470;Laerm;62918;55.706;37.816;2023-08-21T02:10:35;54.79;50.59;62.64;;
74470;Laerm;62918;55.706;37.816;2023-08-21T02:11:06;60.22;51.74;66.74;;
74470;Laerm;62918;55.706;37.816;2023-08-21T02:11:36;56.02;51.75;59.93;;
74470;Laerm;62918;55.706;37.816;2023-08-21T02:12:07;60.42;52.65;65.30;;
74470;Laerm;62918;55.706;37.816;2023-08-21T02:12:38;58.12;52.22;66.73;;
74470;Laerm;62918;55.706;37.816;2023-08-21T02:13:08;59.48;54.44;64.95;;
74470;Laerm;62918;55.706;37.816;2023-08-21T02:13:39;57.96;53.72;70.89;;
74470;Laerm;62918;55.706;37.816;2023-08-21T02:14:09;60.34;53.61;70.06;;
74470;Laerm;62918;55.706;37.816;2023-08-21T02:14:40;57.74;52.87;64.26;;
74470;Laerm;62918;55.706;37.816;2023-08-21T02:15:10;58.89;50.59;67.73;;
74470;Laerm;62918;55.706;37.816;2023-08-21T02:15:41;62.16;53.06;66.53;;
74470;Laerm;62918;55.706;37.816;2023-08-21T02:16:32;57.42;51.44;64.30;;
74470;Laerm;62918;55.706;37.816;2023-08-21T02:17:02;61.50;53.84;67.95;;
74470;Laerm;62918;55.706;37.816;2023-08-21T02:17:33;59.82;53.50;66.00;;
74470;Laerm;62918;55.706;37.816;2023-08-21T02:18:03;57.62;53.21;62.40;;
74470;Laerm;62918;55.706;37.816;2023-08-21T02:18:34;60.42;55.00;67.25;;
74470;Laerm;62918;55.706;37.816;2023-08-21T02:19:05;59.90;55.15;65.98;;
74470;Laerm;62918;55.706;37.816;2023-08-21T02:19:35;61.06;55.37;71.94;;
74470;Laerm;62918;55.706;37.816;2023-08-21T02:20:06;66.20;52.35;74.99;;
74470;Laerm;62918;55.706;37.816;2023-08-21T02:20:37;58.43;52.58;66.93;;
74470;Laerm;62918;55.706;37.816;2023-08-21T02:21:07;59.75;52.88;68.65;;
74470;Laerm;62918;55.706;37.816;2023-08-21T02:21:38;56.08;50.48;61.27;;
74470;Laerm;62918;55.706;37.816;2023-08-21T02:22:08;58.25;50.99;63.40;;
74470;Laerm;62918;55.706;37.816;2023-08-21T02:22:38;62.16;50.87;69.81;;
74470;Laerm;62918;55.706;37.816;2023-08-21T02:23:09;54.05;49.27;58.47;;
74470;Laerm;62918;55.706;37.816;2023-08-21T02:23:40;57.55;52.27;64.58;;
74470;Laerm;62918;55.706;37.816;2023-08-21T02:24:10;60.78;57.01;65.23;;
74470;Laerm;62918;55.706;37.816;2023-08-21T02:24:41;58.62;55.27;62.55;;
74470;Laerm;62918;55.706;37.816;2023-08-21T02:25:11;55.19;49.16;64.11;;
74470;Laerm;62918;55.706;37.816;2023-08-21T02:25:42;55.35;49.06;61.39;;
74470;Laerm;62918;55.706;37.816;2023-08-21T02:26:12;54.35;48.32;62.08;;
74470;Laerm;62918;55.706;37.816;2023-08-21T02:26:43;57.75;51.31;64.72;;
74470;Laerm;62918;55.706;37.816;2023-08-21T02:27:15;54.06;50.54;61.92;;
74470;Laerm;62918;55.706;37.816;2023-08-21T02:27:45;55.44;49.71;62.09;;
74470;Laerm;62918;55.706;37.816;2023-08-21T02:28:16;57.65;52.67;62.90;;
74470;Laerm;62918;55.706;37.816;2023-08-21T02:28:47;60.53;54.19;68.54;;
74470;Laerm;62918;55.706;37.816;2023-08-21T02:29:17;65.66;57.68;69.71;;
74470;Laerm;62918;55.706;37.816;2023-08-21T02:29:48;59.36;51.42;65.79;;
74470;Laerm;62918;55.706;37.816;2023-08-21T02:30:18;53.54;49.73;57.53;;
74470;Laerm;62918;55.706;37.816;2023-08-21T02:30:50;58.16;52.08;65.91;;
74470;Laerm;62918;55.706;37.816;2023-08-21T02:31:21;59.53;55.81;63.11;;
74470;Laerm;62918;55.706;37.816;2023-08-21T02:31:51;60.31;50.83;68.03;;
74470;Laerm;62918;55.706;37.816;2023-08-21T02:32:22;52.66;48.49;59.13;;
74470;Laerm;62918;55.706;37.816;2023-08-21T02:32:52;54.37;49.70;59.18;;
74470;Laerm;62918;55.706;37.816;2023-08-21T02:33:23;61.02;50.24;67.97;;
74470;Laerm;62918;55.706;37.816;2023-08-21T02:33:53;56.07;49.64;62.94;;
74470;Laerm;62918;55.706;37.816;2023-08-21T02:34:24;57.41;52.02;63.18;;
74470;Laerm;62918;55.706;37.816;2023-08-21T02:34:54;56.58;52.19;62.08;;
74470;Laerm;62918;55.706;37.816;2023-08-21T02:35:26;61.66;52.04;67.83;;
74470;Laerm;62918;55.706;37.816;2023-08-21T02:35:56;57.49;53.30;62.63;;
74470;Laerm;62918;55.706;37.816;2023-08-21T02:36:27;56.63;51.69;62.50;;
74470;Laerm;62918;55.706;37.816;2023-08-21T02:36:57;61.10;53.77;68.12;;
74470;Laerm;62918;55.706;37.816;2023-08-21T02:37:28;59.79;50.83;68.97;;
74470;Laerm;62918;55.706;37.816;2023-08-21T02:37:59;55.16;51.56;64.59;;
74470;Laerm;62918;55.706;37.816;2023-08-21T02:38:29;57.32;53.01;70.01;;
74470;Laerm;62918;55.706;37.816;2023-08-21T02:39:00;58.48;55.08;62.82;;
74470;Laerm;62918;55.706;37.816;2023-08-21T02:39:31;56.98;51.02;62.92;;
74470;Laerm;62918;55.706;37.816;2023-08-21T02:40:01;60.68;53.78;65.41;;
74470;Laerm;62918;55.706;37.816;2023-08-21T02:40:32;58.71;52.31;65.78;;
74470;Laerm;62918;55.706;37.816;2023-08-21T02:41:03;58.02;49.40;68.16;;
74470;Laerm;62918;55.706;37.816;2023-08-21T02:41:33;62.41;51.76;69.44;;
74470;Laerm;62918;55.706;37.816;2023-08-21T02:42:04;61.84;52.03;67.36;;
74470;Laerm;62918;55.706;37.816;2023-08-21T02:42:35;58.26;53.28;64.52;;
74470;Laerm;62918;55.706;37.816;2023-08-21T02:43:06;60.17;55.14;67.92;;
74470;Laerm;62918;55.706;37.816;2023-08-21T02:43:37;55.08;50.33;61.39;;
74470;Laerm;62918;55.706;37.816;2023-08-21T02:44:07;61.06;50.83;68.69;;
74470;Laerm;62918;55.706;37.816;2023-08-21T02:44:38;61.22;55.93;66.07;;
74470;Laerm;62918;55.706;37.816;2023-08-21T02:45:08;56.55;49.98;62.55;;
74470;Laerm;62918;55.706;37.816;2023-08-21T02:45:39;57.36;52.63;61.27;;
74470;Laerm;62918;55.706;37.816;2023-08-21T02:46:10;55.97;51.47;60.64;;
74470;Laerm;62918;55.706;37.816;2023-08-21T02:46:40;58.58;53.11;65.20;;
74470;Laerm;62918;55.706;37.816;2023-08-21T02:47:11;59.67;53.85;67.47;;
74470;Laerm;62918;55.706;37.816;2023-08-21T02:47:42;56.27;53.07;61.21;;
74470;Laerm;62918;55.706;37.816;2023-08-21T02:48:12;60.93;56.46;65.20;;
74470;Laerm;62918;55.706;37.816;2023-08-21T02:48:43;62.26;54.35;68.83;;
74470;Laerm;62918;55.706;37.816;2023-08-21T02:49:13;58.14;53.82;61.25;;
74470;Laerm;62918;55.706;37.816;2023-08-21T02:49:44;59.73;55.56;66.41;;
74470;Laerm;62918;55.706;37.816;2023-08-21T02:50:14;61.32;54.51;71.68;;
74470;Laerm;62918;55.706;37.816;2023-08-21T02:50:45;61.43;56.67;66.24;;
74470;Laerm;62918;55.706;37.816;2023-08-21T02:51:16;65.33;58.92;72.49;;
74470;Laerm;62918;55.706;37.816;2023-08-21T02:51:46;61.29;54.68;67.98;;
74470;Laerm;62918;55.706;37.816;2023-08-21T02:52:17;58.51;53.83;69.80;;
74470;Laerm;62918;55.706;37.816;2023-08-21T02:52:48;59.08;53.37;64.51;;
74470;Laerm;62918;55.706;37.816;2023-08-21T02:53:18;57.07;52.56;61.18;;
74470;Laerm;62918;55.706;37.816;2023-08-21T02:53:49;62.68;53.35;70.35;;
74470;Laerm;62918;55.706;37.816;2023-08-21T02:54:20;55.09;51.14;58.58;;
74470;Laerm;62918;55.706;37.816;2023-08-21T02:54:50;63.45;54.13;71.21;;
74470;Laerm;62918;55.706;37.816;2023-08-21T02:55:21;61.87;56.29;67.39;;
74470;Laerm;62918;55.706;37.816;2023-08-21T02:55:51;60.48;55.47;67.85;;
74470;Laerm;62918;55.706;37.816;2023-08-21T02:56:22;58.71;54.13;64.79;;
74470;Laerm;62918;55.706;37.816;2023-08-21T02:56:52;59.50;53.10;68.36;;